sensor_id;sensor_type;location;lat;lon;timestamp;temperature;humidity
50989;DHT22;37008;52.210;21.112;2023-03-23T00:01:21;7.20;99.90
50989;DHT22;37008;52.210;21.112;2023-03-23T00:03:49;7.20;99.90
50989;DHT22;37008;52.210;21.112;2023-03-23T00:06:17;7.20;99.90
50989;DHT22;37008;52.210;21.112;2023-03-23T00:08:45;7.20;99.90
50989;DHT22;37008;52.210;21.112;2023-03-23T00:11:16;7.20;99.90
50989;DHT22;37008;52.210;21.112;2023-03-23T00:13:44;7.20;99.90
50989;DHT22;37008;52.210;21.112;2023-03-23T00:16:11;7.20;99.90
50989;DHT22;37008;52.210;21.112;2023-03-23T00:18:45;7.30;99.90
50989;DHT22;37008;52.210;21.112;2023-03-23T00:21:11;7.30;99.90
50989;DHT22;37008;52.210;21.112;2023-03-23T00:23:36;7.30;99.90
50989;DHT22;37008;52.210;21.112;2023-03-23T00:26:03;7.20;99.90
50989;DHT22;37008;52.210;21.112;2023-03-23T00:28:29;7.20;99.90
50989;DHT22;37008;52.210;21.112;2023-03-23T00:33:23;7.20;99.90
50989;DHT22;37008;52.210;21.112;2023-03-23T00:35:49;7.20;99.90
50989;DHT22;37008;52.210;21.112;2023-03-23T00:38:21;7.10;99.90
50989;DHT22;37008;52.210;21.112;2023-03-23T00:40:47;7.10;99.90
50989;DHT22;37008;52.210;21.112;2023-03-23T00:43:18;7.10;99.90
50989;DHT22;37008;52.210;21.112;2023-03-23T00:45:45;7.10;99.90
50989;DHT22;37008;52.210;21.112;2023-03-23T00:48:19;7.10;99.90
50989;DHT22;37008;52.210;21.112;2023-03-23T00:50:45;7.20;99.90
50989;DHT22;37008;52.210;21.112;2023-03-23T00:53:11;7.20;99.90
50989;DHT22;37008;52.210;21.112;2023-03-23T00:55:36;7.20;99.90
50989;DHT22;37008;52.210;21.112;2023-03-23T00:58:02;7.20;99.90
50989;DHT22;37008;52.210;21.112;2023-03-23T01:00:28;7.30;99.90
50989;DHT22;37008;52.210;21.112;2023-03-23T01:02:54;7.30;99.90
50989;DHT22;37008;52.210;21.112;2023-03-23T01:05:19;7.30;99.90
50989;DHT22;37008;52.210;21.112;2023-03-23T01:07:46;7.30;99.90
50989;DHT22;37008;52.210;21.112;2023-03-23T01:10:13;7.30;99.90
50989;DHT22;37008;52.210;21.112;2023-03-23T01:12:42;7.30;99.90
50989;DHT22;37008;52.210;21.112;2023-03-23T01:15:08;7.40;99.90
50989;DHT22;37008;52.210;21.112;2023-03-23T01:17:34;7.40;99.90
50989;DHT22;37008;52.210;21.112;2023-03-23T01:20:00;7.40;99.90
50989;DHT22;37008;52.210;21.112;2023-03-23T01:22:26;7.40;99.90
50989;DHT22;37008;52.210;21.112;2023-03-23T01:24:51;7.40;99.90
50989;DHT22;37008;52.210;21.112;2023-03-23T01:27:17;7.40;99.90
50989;DHT22;37008;52.210;21.112;2023-03-23T01:29:42;7.40;99.90
50989;DHT22;37008;52.210;21.112;2023-03-23T01:32:08;7.40;99.90
50989;DHT22;37008;52.210;21.112;2023-03-23T01:34:33;7.50;99.90
50989;DHT22;37008;52.210;21.112;2023-03-23T01:37:00;7.50;99.90
50989;DHT22;37008;52.210;21.112;2023-03-23T01:39:25;7.50;99.90
50989;DHT22;37008;52.210;21.112;2023-03-23T01:41:51;7.50;99.90
50989;DHT22;37008;52.210;21.112;2023-03-23T01:46:43;7.50;99.90
50989;DHT22;37008;52.210;21.112;2023-03-23T01:51:51;7.50;99.90
50989;DHT22;37008;52.210;21.112;2023-03-23T01:54:20;7.50;99.90
50989;DHT22;37008;52.210;21.112;2023-03-23T01:57:19;7.50;99.90
50989;DHT22;37008;52.210;21.112;2023-03-23T01:59:49;7.50;99.90
50989;DHT22;37008;52.210;21.112;2023-03-23T02:02:17;7.40;99.90
50989;DHT22;37008;52.210;21.112;2023-03-23T02:04:43;7.40;99.90
50989;DHT22;37008;52.210;21.112;2023-03-23T02:07:09;7.40;99.90
50989;DHT22;37008;52.210;21.112;2023-03-23T02:09:36;7.30;99.90
50989;DHT22;37008;52.210;21.112;2023-03-23T02:12:02;7.40;99.90
50989;DHT22;37008;52.210;21.112;2023-03-23T02:14:28;7.30;99.90
50989;DHT22;37008;52.210;21.112;2023-03-23T02:17:22;7.20;99.90
50989;DHT22;37008;52.210;21.112;2023-03-23T02:23:16;7.20;99.90
50989;DHT22;37008;52.210;21.112;2023-03-23T02:31:47;7.10;99.90
50989;DHT22;37008;52.210;21.112;2023-03-23T02:34:22;7.00;99.90
50989;DHT22;37008;52.210;21.112;2023-03-23T02:36:56;7.00;99.90
50989;DHT22;37008;52.210;21.112;2023-03-23T02:39:30;7.00;99.90
50989;DHT22;37008;52.210;21.112;2023-03-23T02:42:02;7.00;99.90
50989;DHT22;37008;52.210;21.112;2023-03-23T02:44:31;7.00;99.90
50989;DHT22;37008;52.210;21.112;2023-03-23T02:46:59;7.00;99.90
50989;DHT22;37008;52.210;21.112;2023-03-23T02:49:26;7.00;99.90
50989;DHT22;37008;52.210;21.112;2023-03-23T02:51:55;7.00;99.90
50989;DHT22;37008;52.210;21.112;2023-03-23T02:54:22;7.00;99.90
50989;DHT22;37008;52.210;21.112;2023-03-23T02:56:52;7.10;99.90
50989;DHT22;37008;52.210;21.112;2023-03-23T02:59:18;7.10;99.90
50989;DHT22;37008;52.210;21.112;2023-03-23T03:04:20;7.10;99.90
50989;DHT22;37008;52.210;21.112;2023-03-23T03:09:22;7.10;99.90
50989;DHT22;37008;52.210;21.112;2023-03-23T03:11:56;7.20;99.90
50989;DHT22;37008;52.210;21.112;2023-03-23T03:14:29;7.10;99.90
50989;DHT22;37008;52.210;21.112;2023-03-23T03:17:24;7.20;99.90
50989;DHT22;37008;52.210;21.112;2023-03-23T03:19:56;7.20;99.90
50989;DHT22;37008;52.210;21.112;2023-03-23T03:22:24;7.30;99.90
50989;DHT22;37008;52.210;21.112;2023-03-23T03:24:58;7.20;99.90
50989;DHT22;37008;52.210;21.112;2023-03-23T03:27:25;7.30;99.90
50989;DHT22;37008;52.210;21.112;2023-03-23T03:29:56;7.30;99.90
50989;DHT22;37008;52.210;21.112;2023-03-23T03:32:29;7.30;99.90
50989;DHT22;37008;52.210;21.112;2023-03-23T03:34:59;7.20;99.90
50989;DHT22;37008;52.210;21.112;2023-03-23T03:37:25;7.20;99.90
50989;DHT22;37008;52.210;21.112;2023-03-23T03:39:51;7.20;99.90
50989;DHT22;37008;52.210;21.112;2023-03-23T03:42:17;7.10;99.90
50989;DHT22;37008;52.210;21.112;2023-03-23T03:44:43;7.10;99.90
50989;DHT22;37008;52.210;21.112;2023-03-23T03:47:08;7.00;99.90
50989;DHT22;37008;52.210;21.112;2023-03-23T03:49:34;7.00;99.90
50989;DHT22;37008;52.210;21.112;2023-03-23T03:52:00;6.90;99.90
50989;DHT22;37008;52.210;21.112;2023-03-23T03:54:26;6.90;99.90
50989;DHT22;37008;52.210;21.112;2023-03-23T03:56:51;6.80;99.90
50989;DHT22;37008;52.210;21.112;2023-03-23T03:59:23;6.80;99.90
50989;DHT22;37008;52.210;21.112;2023-03-23T04:01:48;6.70;99.90
50989;DHT22;37008;52.210;21.112;2023-03-23T04:04:19;6.70;99.90
50989;DHT22;37008;52.210;21.112;2023-03-23T04:06:45;6.60;99.90
50989;DHT22;37008;52.210;21.112;2023-03-23T04:09:10;6.60;99.90
50989;DHT22;37008;52.210;21.112;2023-03-23T04:11:37;6.50;99.90
50989;DHT22;37008;52.210;21.112;2023-03-23T04:14:02;6.50;99.90
50989;DHT22;37008;52.210;21.112;2023-03-23T04:16:28;6.40;99.90
50989;DHT22;37008;52.210;21.112;2023-03-23T04:18:55;6.40;99.90
50989;DHT22;37008;52.210;21.112;2023-03-23T04:21:21;6.30;99.90
50989;DHT22;37008;52.210;21.112;2023-03-23T04:23:47;6.30;99.90
50989;DHT22;37008;52.210;21.112;2023-03-23T04:26:12;6.20;99.90
50989;DHT22;37008;52.210;21.112;2023-03-23T04:28:39;6.20;99.90
50989;DHT22;37008;52.210;21.112;2023-03-23T04:31:04;6.10;99.90
50989;DHT22;37008;52.210;21.112;2023-03-23T04:33:30;6.10;99.90
50989;DHT22;37008;52.210;21.112;2023-03-23T04:35:59;6.10;99.90
50989;DHT22;37008;52.210;21.112;2023-03-23T04:38:26;6.00;99.90
50989;DHT22;37008;52.210;21.112;2023-03-23T04:40:54;6.00;99.90
50989;DHT22;37008;52.210;21.112;2023-03-23T04:43:22;6.00;99.90
50989;DHT22;37008;52.210;21.112;2023-03-23T04:45:55;5.90;99.90
50989;DHT22;37008;52.210;21.112;2023-03-23T04:48:22;5.90;99.90
50989;DHT22;37008;52.210;21.112;2023-03-23T04:50:48;5.90;99.90
50989;DHT22;37008;52.210;21.112;2023-03-23T04:53:16;5.90;99.90
50989;DHT22;37008;52.210;21.112;2023-03-23T04:55:43;5.80;99.90
50989;DHT22;37008;52.210;21.112;2023-03-23T04:58:09;5.90;99.90
50989;DHT22;37008;52.210;21.112;2023-03-23T05:00:36;5.80;99.90
50989;DHT22;37008;52.210;21.112;2023-03-23T05:03:01;5.90;99.90
50989;DHT22;37008;52.210;21.112;2023-03-23T05:05:27;5.90;99.90
50989;DHT22;37008;52.210;21.112;2023-03-23T05:07:56;5.90;99.90
50989;DHT22;37008;52.210;21.112;2023-03-23T05:10:22;5.90;99.90
50989;DHT22;37008;52.210;21.112;2023-03-23T05:12:48;6.00;99.90
50989;DHT22;37008;52.210;21.112;2023-03-23T05:15:15;6.00;99.90
50989;DHT22;37008;52.210;21.112;2023-03-23T05:17:42;6.10;99.90
50989;DHT22;37008;52.210;21.112;2023-03-23T05:20:13;6.20;99.90
50989;DHT22;37008;52.210;21.112;2023-03-23T05:22:43;6.20;99.90
50989;DHT22;37008;52.210;21.112;2023-03-23T05:25:09;6.30;99.90
50989;DHT22;37008;52.210;21.112;2023-03-23T05:27:37;6.40;99.90
50989;DHT22;37008;52.210;21.112;2023-03-23T05:30:04;6.50;99.90
50989;DHT22;37008;52.210;21.112;2023-03-23T05:32:30;6.60;99.90
50989;DHT22;37008;52.210;21.112;2023-03-23T05:34:57;6.70;99.90
50989;DHT22;37008;52.210;21.112;2023-03-23T05:37:24;6.80;99.90
50989;DHT22;37008;52.210;21.112;2023-03-23T05:39:50;6.90;99.90
50989;DHT22;37008;52.210;21.112;2023-03-23T05:42:19;7.00;99.90
50989;DHT22;37008;52.210;21.112;2023-03-23T05:44:46;7.10;99.90
50989;DHT22;37008;52.210;21.112;2023-03-23T05:47:12;7.30;99.90
50989;DHT22;37008;52.210;21.112;2023-03-23T05:49:38;7.40;99.90
50989;DHT22;37008;52.210;21.112;2023-03-23T05:52:04;7.50;99.90
50989;DHT22;37008;52.210;21.112;2023-03-23T05:54:29;7.60;99.90
50989;DHT22;37008;52.210;21.112;2023-03-23T05:56:55;7.80;99.90
50989;DHT22;37008;52.210;21.112;2023-03-23T05:59:20;7.90;99.90
50989;DHT22;37008;52.210;21.112;2023-03-23T06:01:46;8.00;99.90
50989;DHT22;37008;52.210;21.112;2023-03-23T06:04:12;8.10;99.90
50989;DHT22;37008;52.210;21.112;2023-03-23T06:06:39;8.30;99.90
50989;DHT22;37008;52.210;21.112;2023-03-23T06:09:06;8.40;99.90
50989;DHT22;37008;52.210;21.112;2023-03-23T06:11:32;8.50;99.90
50989;DHT22;37008;52.210;21.112;2023-03-23T06:13:58;8.60;99.90
50989;DHT22;37008;52.210;21.112;2023-03-23T06:16:24;8.70;99.90
50989;DHT22;37008;52.210;21.112;2023-03-23T06:18:50;8.70;99.90
50989;DHT22;37008;52.210;21.112;2023-03-23T06:21:16;8.90;99.90
50989;DHT22;37008;52.210;21.112;2023-03-23T06:23:44;9.00;99.90
50989;DHT22;37008;52.210;21.112;2023-03-23T06:26:12;9.00;99.90
50989;DHT22;37008;52.210;21.112;2023-03-23T06:28:41;9.20;99.90
50989;DHT22;37008;52.210;21.112;2023-03-23T06:31:07;9.20;99.90
50989;DHT22;37008;52.210;21.112;2023-03-23T06:33:35;9.30;99.90
50989;DHT22;37008;52.210;21.112;2023-03-23T06:36:01;9.40;99.90
50989;DHT22;37008;52.210;21.112;2023-03-23T06:38:27;9.50;99.90
50989;DHT22;37008;52.210;21.112;2023-03-23T06:40:53;9.60;99.90
50989;DHT22;37008;52.210;21.112;2023-03-23T06:43:20;9.60;99.90
50989;DHT22;37008;52.210;21.112;2023-03-23T06:48:21;9.80;99.90
50989;DHT22;37008;52.210;21.112;2023-03-23T06:50:46;10.00;99.90
50989;DHT22;37008;52.210;21.112;2023-03-23T06:53:12;10.10;99.90
50989;DHT22;37008;52.210;21.112;2023-03-23T06:55:38;10.20;99.90
50989;DHT22;37008;52.210;21.112;2023-03-23T06:58:10;10.30;99.90
50989;DHT22;37008;52.210;21.112;2023-03-23T07:00:36;10.40;99.90
50989;DHT22;37008;52.210;21.112;2023-03-23T07:03:01;10.50;99.90
50989;DHT22;37008;52.210;21.112;2023-03-23T07:05:27;10.50;99.90
50989;DHT22;37008;52.210;21.112;2023-03-23T07:07:53;10.60;99.90
50989;DHT22;37008;52.210;21.112;2023-03-23T07:10:19;10.70;99.90
50989;DHT22;37008;52.210;21.112;2023-03-23T07:12:45;10.80;99.90
50989;DHT22;37008;52.210;21.112;2023-03-23T07:15:11;11.00;99.90
50989;DHT22;37008;52.210;21.112;2023-03-23T07:17:38;11.00;99.90
50989;DHT22;37008;52.210;21.112;2023-03-23T07:20:07;11.20;99.90
50989;DHT22;37008;52.210;21.112;2023-03-23T07:22:33;11.30;99.90
50989;DHT22;37008;52.210;21.112;2023-03-23T07:24:59;11.40;99.90
50989;DHT22;37008;52.210;21.112;2023-03-23T07:27:25;11.50;99.90
50989;DHT22;37008;52.210;21.112;2023-03-23T07:29:51;11.70;99.90
50989;DHT22;37008;52.210;21.112;2023-03-23T07:32:17;11.80;99.90
50989;DHT22;37008;52.210;21.112;2023-03-23T07:34:43;11.90;99.90
50989;DHT22;37008;52.210;21.112;2023-03-23T07:37:09;12.10;99.90
50989;DHT22;37008;52.210;21.112;2023-03-23T07:39:38;12.20;99.90
50989;DHT22;37008;52.210;21.112;2023-03-23T07:42:03;12.40;99.90
50989;DHT22;37008;52.210;21.112;2023-03-23T07:44:29;12.50;99.90
50989;DHT22;37008;52.210;21.112;2023-03-23T07:46:54;12.60;99.90
50989;DHT22;37008;52.210;21.112;2023-03-23T07:49:20;12.80;99.90
50989;DHT22;37008;52.210;21.112;2023-03-23T07:51:46;12.80;99.90
50989;DHT22;37008;52.210;21.112;2023-03-23T07:54:13;13.00;99.90
50989;DHT22;37008;52.210;21.112;2023-03-23T07:56:47;13.10;99.90
50989;DHT22;37008;52.210;21.112;2023-03-23T07:59:21;13.30;98.60
50989;DHT22;37008;52.210;21.112;2023-03-23T08:01:47;13.40;96.90
50989;DHT22;37008;52.210;21.112;2023-03-23T08:04:13;13.50;96.50
50989;DHT22;37008;52.210;21.112;2023-03-23T08:06:40;13.70;95.30
50989;DHT22;37008;52.210;21.112;2023-03-23T08:11:43;13.90;92.20
50989;DHT22;37008;52.210;21.112;2023-03-23T08:14:14;14.10;91.20
50989;DHT22;37008;52.210;21.112;2023-03-23T08:16:43;14.20;90.50
50989;DHT22;37008;52.210;21.112;2023-03-23T08:19:08;14.40;89.40
50989;DHT22;37008;52.210;21.112;2023-03-23T08:21:34;14.50;88.10
50989;DHT22;37008;52.210;21.112;2023-03-23T08:24:01;14.60;86.70
50989;DHT22;37008;52.210;21.112;2023-03-23T08:26:26;14.70;85.20
50989;DHT22;37008;52.210;21.112;2023-03-23T08:28:54;14.80;83.90
50989;DHT22;37008;52.210;21.112;2023-03-23T08:31:19;15.00;82.40
50989;DHT22;37008;52.210;21.112;2023-03-23T08:33:48;15.20;80.50
50989;DHT22;37008;52.210;21.112;2023-03-23T08:36:14;15.40;78.70
50989;DHT22;37008;52.210;21.112;2023-03-23T08:38:40;15.70;77.80
50989;DHT22;37008;52.210;21.112;2023-03-23T08:41:06;15.90;76.30
50989;DHT22;37008;52.210;21.112;2023-03-23T08:43:33;16.00;73.70
50989;DHT22;37008;52.210;21.112;2023-03-23T08:45:59;16.10;73.10
50989;DHT22;37008;52.210;21.112;2023-03-23T08:48:25;16.30;72.00
50989;DHT22;37008;52.210;21.112;2023-03-23T08:50:51;16.40;71.60
50989;DHT22;37008;52.210;21.112;2023-03-23T08:53:18;16.40;70.60
50989;DHT22;37008;52.210;21.112;2023-03-23T08:55:49;16.40;70.20
50989;DHT22;37008;52.210;21.112;2023-03-23T08:58:15;16.40;70.00
50989;DHT22;37008;52.210;21.112;2023-03-23T09:00:41;16.40;69.20
50989;DHT22;37008;52.210;21.112;2023-03-23T09:03:07;16.50;68.80
50989;DHT22;37008;52.210;21.112;2023-03-23T09:05:32;16.50;68.20
50989;DHT22;37008;52.210;21.112;2023-03-23T09:07:58;16.70;67.80
50989;DHT22;37008;52.210;21.112;2023-03-23T09:10:26;16.70;67.20
50989;DHT22;37008;52.210;21.112;2023-03-23T09:12:53;16.60;66.40
50989;DHT22;37008;52.210;21.112;2023-03-23T09:15:19;16.60;65.90
50989;DHT22;37008;52.210;21.112;2023-03-23T09:17:47;16.60;65.70
50989;DHT22;37008;52.210;21.112;2023-03-23T09:20:15;16.50;65.70
50989;DHT22;37008;52.210;21.112;2023-03-23T09:22:47;16.50;66.20
50989;DHT22;37008;52.210;21.112;2023-03-23T09:25:15;16.50;66.10
50989;DHT22;37008;52.210;21.112;2023-03-23T09:27:43;16.50;65.80
